sensor_id;sensor_type;location;lat;lon;timestamp;pressure;altitude;pressure_sealevel;temperature
25514;BMP180;48128;54.242;10.280;2023-05-10T15:39:05;100689.00;;;16.60
25514;BMP180;48128;54.242;10.280;2023-05-10T15:41:32;100701.00;;;16.70
25514;BMP180;48128;54.242;10.280;2023-05-10T15:43:59;100697.00;;;16.80
25514;BMP180;48128;54.242;10.280;2023-05-10T15:46:28;100706.00;;;16.90
25514;BMP180;48128;54.242;10.280;2023-05-10T15:48:56;100713.00;;;16.90
25514;BMP180;48128;54.242;10.280;2023-05-10T15:51:23;100722.00;;;17.00
25514;BMP180;48128;54.242;10.280;2023-05-10T15:53:50;100717.00;;;17.00
25514;BMP180;48128;54.242;10.280;2023-05-10T15:56:32;100717.00;;;16.80
25514;BMP180;48128;54.242;10.280;2023-05-10T15:58:59;100713.00;;;16.80
25514;BMP180;48128;54.242;10.280;2023-05-10T16:01:26;100709.00;;;16.70
25514;BMP180;48128;54.242;10.280;2023-05-10T16:03:54;100718.00;;;16.70
25514;BMP180;48128;54.242;10.280;2023-05-10T16:06:21;100736.00;;;16.70
25514;BMP180;48128;54.242;10.280;2023-05-10T16:08:48;100736.00;;;16.70
25514;BMP180;48128;54.242;10.280;2023-05-10T16:11:15;100727.00;;;16.70
25514;BMP180;48128;54.242;10.280;2023-05-10T16:13:42;100732.00;;;16.60
25514;BMP180;48128;54.242;10.280;2023-05-10T16:16:09;100714.00;;;16.60
25514;BMP180;48128;54.242;10.280;2023-05-10T16:18:36;100720.00;;;16.50
25514;BMP180;48128;54.242;10.280;2023-05-10T16:21:03;100718.00;;;16.50
25514;BMP180;48128;54.242;10.280;2023-05-10T16:23:30;100722.00;;;16.50
25514;BMP180;48128;54.242;10.280;2023-05-10T16:26:12;100741.00;;;16.50
25514;BMP180;48128;54.242;10.280;2023-05-10T16:28:39;100750.00;;;16.60
25514;BMP180;48128;54.242;10.280;2023-05-10T16:31:06;100733.00;;;16.50
25514;BMP180;48128;54.242;10.280;2023-05-10T16:33:33;100752.00;;;16.40
25514;BMP180;48128;54.242;10.280;2023-05-10T16:36:00;100751.00;;;16.40
25514;BMP180;48128;54.242;10.280;2023-05-10T16:38:27;100750.00;;;16.40
25514;BMP180;48128;54.242;10.280;2023-05-10T16:40:54;100739.00;;;16.40
25514;BMP180;48128;54.242;10.280;2023-05-10T16:43:22;100741.00;;;16.40
25514;BMP180;48128;54.242;10.280;2023-05-10T16:45:51;100750.00;;;16.50
25514;BMP180;48128;54.242;10.280;2023-05-10T16:48:21;100756.00;;;16.40
25514;BMP180;48128;54.242;10.280;2023-05-10T16:50:49;100748.00;;;16.40
25514;BMP180;48128;54.242;10.280;2023-05-10T16:53:16;100744.00;;;16.40
25514;BMP180;48128;54.242;10.280;2023-05-10T16:55:43;100759.00;;;16.30
25514;BMP180;48128;54.242;10.280;2023-05-10T16:58:15;100770.00;;;16.30
25514;BMP180;48128;54.242;10.280;2023-05-10T17:00:42;100750.00;;;16.30
25514;BMP180;48128;54.242;10.280;2023-05-10T17:03:09;100762.00;;;16.20
25514;BMP180;48128;54.242;10.280;2023-05-10T17:05:36;100759.00;;;16.20
25514;BMP180;48128;54.242;10.280;2023-05-10T17:08:03;100754.00;;;16.20
25514;BMP180;48128;54.242;10.280;2023-05-10T17:10:30;100760.00;;;16.20
25514;BMP180;48128;54.242;10.280;2023-05-10T17:12:57;100761.00;;;16.30
25514;BMP180;48128;54.242;10.280;2023-05-10T17:15:24;100766.00;;;16.20
25514;BMP180;48128;54.242;10.280;2023-05-10T17:17:51;100773.00;;;16.30
25514;BMP180;48128;54.242;10.280;2023-05-10T17:20:18;100771.00;;;16.30
25514;BMP180;48128;54.242;10.280;2023-05-10T17:22:45;100783.00;;;16.20
25514;BMP180;48128;54.242;10.280;2023-05-10T17:25:12;100785.00;;;16.20
25514;BMP180;48128;54.242;10.280;2023-05-10T17:27:39;100778.00;;;16.20
25514;BMP180;48128;54.242;10.280;2023-05-10T17:30:06;100786.00;;;16.20
25514;BMP180;48128;54.242;10.280;2023-05-10T17:32:33;100797.00;;;16.10
25514;BMP180;48128;54.242;10.280;2023-05-10T17:35:01;100788.00;;;16.10
25514;BMP180;48128;54.242;10.280;2023-05-10T17:37:30;100784.00;;;16.00
25514;BMP180;48128;54.242;10.280;2023-05-10T17:39:59;100789.00;;;16.00
25514;BMP180;48128;54.242;10.280;2023-05-10T17:42:26;100791.00;;;15.90
25514;BMP180;48128;54.242;10.280;2023-05-10T17:44:53;100786.00;;;15.90
25514;BMP180;48128;54.242;10.280;2023-05-10T17:47:20;100789.00;;;15.90
25514;BMP180;48128;54.242;10.280;2023-05-10T17:49:47;100775.00;;;15.80
25514;BMP180;48128;54.242;10.280;2023-05-10T17:52:14;100777.00;;;15.80
25514;BMP180;48128;54.242;10.280;2023-05-10T17:54:41;100772.00;;;15.70
25514;BMP180;48128;54.242;10.280;2023-05-10T17:57:08;100772.00;;;15.70
25514;BMP180;48128;54.242;10.280;2023-05-10T17:59:35;100780.00;;;15.60
25514;BMP180;48128;54.242;10.280;2023-05-10T18:02:02;100785.00;;;15.60
25514;BMP180;48128;54.242;10.280;2023-05-10T18:04:29;100780.00;;;15.50
25514;BMP180;48128;54.242;10.280;2023-05-10T18:06:57;100791.00;;;15.50
25514;BMP180;48128;54.242;10.280;2023-05-10T18:09:27;100784.00;;;15.50
25514;BMP180;48128;54.242;10.280;2023-05-10T18:11:55;100783.00;;;15.50
25514;BMP180;48128;54.242;10.280;2023-05-10T18:14:22;100787.00;;;15.40
25514;BMP180;48128;54.242;10.280;2023-05-10T18:20:15;100803.00;;;15.40
25514;BMP180;48128;54.242;10.280;2023-05-10T18:22:48;100789.00;;;15.30
25514;BMP180;48128;54.242;10.280;2023-05-10T18:25:30;100790.00;;;15.20
25514;BMP180;48128;54.242;10.280;2023-05-10T18:28:00;100793.00;;;15.20
25514;BMP180;48128;54.242;10.280;2023-05-10T18:30:29;100797.00;;;15.10
25514;BMP180;48128;54.242;10.280;2023-05-10T18:32:56;100796.00;;;15.00
25514;BMP180;48128;54.242;10.280;2023-05-10T18:35:23;100798.00;;;15.00
25514;BMP180;48128;54.242;10.280;2023-05-10T18:37:50;100805.00;;;15.00
25514;BMP180;48128;54.242;10.280;2023-05-10T18:40:21;100814.00;;;14.90
25514;BMP180;48128;54.242;10.280;2023-05-10T18:42:54;100809.00;;;14.90
25514;BMP180;48128;54.242;10.280;2023-05-10T18:45:21;100820.00;;;14.80
25514;BMP180;48128;54.242;10.280;2023-05-10T18:47:48;100812.00;;;14.80
25514;BMP180;48128;54.242;10.280;2023-05-10T18:50:15;100813.00;;;14.70
25514;BMP180;48128;54.242;10.280;2023-05-10T18:52:45;100819.00;;;14.70
25514;BMP180;48128;54.242;10.280;2023-05-10T18:55:12;100818.00;;;14.60
25514;BMP180;48128;54.242;10.280;2023-05-10T18:57:39;100826.00;;;14.60
25514;BMP180;48128;54.242;10.280;2023-05-10T19:00:10;100827.00;;;14.60
25514;BMP180;48128;54.242;10.280;2023-05-10T19:02:38;100830.00;;;14.60
25514;BMP180;48128;54.242;10.280;2023-05-10T19:05:06;100822.00;;;14.50
25514;BMP180;48128;54.242;10.280;2023-05-10T19:07:33;100830.00;;;14.50
25514;BMP180;48128;54.242;10.280;2023-05-10T19:10:05;100827.00;;;14.50
25514;BMP180;48128;54.242;10.280;2023-05-10T19:12:32;100836.00;;;14.40
25514;BMP180;48128;54.242;10.280;2023-05-10T19:14:59;100833.00;;;14.40
25514;BMP180;48128;54.242;10.280;2023-05-10T19:17:26;100839.00;;;14.40
25514;BMP180;48128;54.242;10.280;2023-05-10T19:19:57;100848.00;;;14.40
25514;BMP180;48128;54.242;10.280;2023-05-10T19:22:28;100848.00;;;14.30
25514;BMP180;48128;54.242;10.280;2023-05-10T19:45:48;100892.00;;;14.40
25514;BMP180;48128;54.242;10.280;2023-05-10T19:48:15;100884.00;;;14.30
25514;BMP180;48128;54.242;10.280;2023-05-10T19:53:29;100893.00;;;14.30
25514;BMP180;48128;54.242;10.280;2023-05-10T19:56:04;100883.00;;;14.30
25514;BMP180;48128;54.242;10.280;2023-05-10T19:58:35;100888.00;;;14.20
25514;BMP180;48128;54.242;10.280;2023-05-10T20:01:02;100889.00;;;14.20
25514;BMP180;48128;54.242;10.280;2023-05-10T20:03:32;100896.00;;;14.20
25514;BMP180;48128;54.242;10.280;2023-05-10T20:06:00;100898.00;;;14.10
25514;BMP180;48128;54.242;10.280;2023-05-10T20:08:38;100898.00;;;14.10
25514;BMP180;48128;54.242;10.280;2023-05-10T20:11:06;100892.00;;;14.10
25514;BMP180;48128;54.242;10.280;2023-05-10T20:13:33;100894.00;;;14.00
25514;BMP180;48128;54.242;10.280;2023-05-10T20:16:01;100901.00;;;14.00
25514;BMP180;48128;54.242;10.280;2023-05-10T20:18:28;100904.00;;;14.00
25514;BMP180;48128;54.242;10.280;2023-05-10T20:20:57;100909.00;;;14.00
25514;BMP180;48128;54.242;10.280;2023-05-10T20:23:25;100908.00;;;13.90
25514;BMP180;48128;54.242;10.280;2023-05-10T20:25:51;100900.00;;;13.90
25514;BMP180;48128;54.242;10.280;2023-05-10T20:28:22;100908.00;;;13.90
25514;BMP180;48128;54.242;10.280;2023-05-10T20:30:51;100910.00;;;13.80
25514;BMP180;48128;54.242;10.280;2023-05-10T20:33:19;100914.00;;;13.80
25514;BMP180;48128;54.242;10.280;2023-05-10T20:35:46;100906.00;;;13.70
25514;BMP180;48128;54.242;10.280;2023-05-10T20:38:13;100921.00;;;13.70
25514;BMP180;48128;54.242;10.280;2023-05-10T20:40:40;100919.00;;;13.70
25514;BMP180;48128;54.242;10.280;2023-05-10T20:43:10;100925.00;;;13.60
25514;BMP180;48128;54.242;10.280;2023-05-10T20:45:37;100924.00;;;13.60
25514;BMP180;48128;54.242;10.280;2023-05-10T20:48:04;100925.00;;;13.60
25514;BMP180;48128;54.242;10.280;2023-05-10T20:50:31;100921.00;;;13.60
25514;BMP180;48128;54.242;10.280;2023-05-10T20:52:59;100921.00;;;13.60
25514;BMP180;48128;54.242;10.280;2023-05-10T20:55:27;100935.00;;;13.60
25514;BMP180;48128;54.242;10.280;2023-05-10T20:57:54;100934.00;;;13.60
25514;BMP180;48128;54.242;10.280;2023-05-10T21:00:21;100944.00;;;13.50
25514;BMP180;48128;54.242;10.280;2023-05-10T21:02:48;100942.00;;;13.60
25514;BMP180;48128;54.242;10.280;2023-05-10T21:05:16;100938.00;;;13.60
25514;BMP180;48128;54.242;10.280;2023-05-10T21:07:43;100932.00;;;13.60
25514;BMP180;48128;54.242;10.280;2023-05-10T21:10:10;100942.00;;;13.60
25514;BMP180;48128;54.242;10.280;2023-05-10T21:12:37;100944.00;;;13.60
25514;BMP180;48128;54.242;10.280;2023-05-10T21:15:04;100940.00;;;13.60
25514;BMP180;48128;54.242;10.280;2023-05-10T21:17:31;100936.00;;;13.60
25514;BMP180;48128;54.242;10.280;2023-05-10T21:19:58;100936.00;;;13.60
25514;BMP180;48128;54.242;10.280;2023-05-10T21:22:25;100937.00;;;13.60
25514;BMP180;48128;54.242;10.280;2023-05-10T21:24:52;100936.00;;;13.60
25514;BMP180;48128;54.242;10.280;2023-05-10T21:27:19;100938.00;;;13.50
25514;BMP180;48128;54.242;10.280;2023-05-10T21:29:46;100944.00;;;13.50
25514;BMP180;48128;54.242;10.280;2023-05-10T21:32:13;100939.00;;;13.50
25514;BMP180;48128;54.242;10.280;2023-05-10T21:34:40;100946.00;;;13.50
25514;BMP180;48128;54.242;10.280;2023-05-10T21:37:07;100936.00;;;13.40
25514;BMP180;48128;54.242;10.280;2023-05-10T21:39:34;100944.00;;;13.40
25514;BMP180;48128;54.242;10.280;2023-05-10T21:42:01;100945.00;;;13.40
25514;BMP180;48128;54.242;10.280;2023-05-10T21:44:29;100950.00;;;13.40
25514;BMP180;48128;54.242;10.280;2023-05-10T21:46:57;100943.00;;;13.40
25514;BMP180;48128;54.242;10.280;2023-05-10T21:49:24;100947.00;;;13.30
25514;BMP180;48128;54.242;10.280;2023-05-10T21:51:51;100950.00;;;13.30
25514;BMP180;48128;54.242;10.280;2023-05-10T21:54:18;100948.00;;;13.30
25514;BMP180;48128;54.242;10.280;2023-05-10T21:56:45;100959.00;;;13.30
25514;BMP180;48128;54.242;10.280;2023-05-10T21:59:12;100956.00;;;13.30
25514;BMP180;48128;54.242;10.280;2023-05-10T22:01:39;100950.00;;;13.20
25514;BMP180;48128;54.242;10.280;2023-05-10T22:04:06;100958.00;;;13.20
25514;BMP180;48128;54.242;10.280;2023-05-10T22:06:33;100962.00;;;13.20
25514;BMP180;48128;54.242;10.280;2023-05-10T22:09:00;100947.00;;;13.20
25514;BMP180;48128;54.242;10.280;2023-05-10T22:11:27;100963.00;;;13.10
25514;BMP180;48128;54.242;10.280;2023-05-10T22:13:54;100965.00;;;13.10
25514;BMP180;48128;54.242;10.280;2023-05-10T22:16:21;100953.00;;;13.10
25514;BMP180;48128;54.242;10.280;2023-05-10T22:18:48;100964.00;;;13.10
25514;BMP180;48128;54.242;10.280;2023-05-10T22:21:15;100960.00;;;13.10
25514;BMP180;48128;54.242;10.280;2023-05-10T22:23:42;100964.00;;;13.10
25514;BMP180;48128;54.242;10.280;2023-05-10T22:26:09;100955.00;;;13.10
25514;BMP180;48128;54.242;10.280;2023-05-10T22:28:36;100964.00;;;13.10
25514;BMP180;48128;54.242;10.280;2023-05-10T22:31:02;100956.00;;;13.10
25514;BMP180;48128;54.242;10.280;2023-05-10T22:33:34;100952.00;;;13.10
25514;BMP180;48128;54.242;10.280;2023-05-10T22:36:01;100971.00;;;13.10
25514;BMP180;48128;54.242;10.280;2023-05-10T22:38:27;100970.00;;;13.10
25514;BMP180;48128;54.242;10.280;2023-05-10T22:40:54;100965.00;;;13.00
25514;BMP180;48128;54.242;10.280;2023-05-10T22:43:21;100965.00;;;13.00
25514;BMP180;48128;54.242;10.280;2023-05-10T22:45:48;100980.00;;;13.00
25514;BMP180;48128;54.242;10.280;2023-05-10T22:48:15;100977.00;;;13.00
25514;BMP180;48128;54.242;10.280;2023-05-10T22:50:42;100973.00;;;12.90
25514;BMP180;48128;54.242;10.280;2023-05-10T22:53:09;100980.00;;;12.90
25514;BMP180;48128;54.242;10.280;2023-05-10T22:55:36;100978.00;;;12.90
25514;BMP180;48128;54.242;10.280;2023-05-10T22:58:03;100985.00;;;12.90
25514;BMP180;48128;54.242;10.280;2023-05-10T23:00:30;100985.00;;;12.90
25514;BMP180;48128;54.242;10.280;2023-05-10T23:02:56;100984.00;;;12.90
25514;BMP180;48128;54.242;10.280;2023-05-10T23:05:23;100974.00;;;12.80
25514;BMP180;48128;54.242;10.280;2023-05-10T23:07:50;100989.00;;;12.80
25514;BMP180;48128;54.242;10.280;2023-05-10T23:10:19;100981.00;;;12.80
25514;BMP180;48128;54.242;10.280;2023-05-10T23:12:46;100984.00;;;12.70
25514;BMP180;48128;54.242;10.280;2023-05-10T23:15:13;100979.00;;;12.70
25514;BMP180;48128;54.242;10.280;2023-05-10T23:17:40;100990.00;;;12.60
25514;BMP180;48128;54.242;10.280;2023-05-10T23:20:07;100995.00;;;12.60
25514;BMP180;48128;54.242;10.280;2023-05-10T23:22:34;100981.00;;;12.60
25514;BMP180;48128;54.242;10.280;2023-05-10T23:25:01;100988.00;;;12.60
25514;BMP180;48128;54.242;10.280;2023-05-10T23:27:28;100989.00;;;12.50
25514;BMP180;48128;54.242;10.280;2023-05-10T23:29:57;100990.00;;;12.50
25514;BMP180;48128;54.242;10.280;2023-05-10T23:32:24;100987.00;;;12.40
25514;BMP180;48128;54.242;10.280;2023-05-10T23:34:51;101002.00;;;12.40
25514;BMP180;48128;54.242;10.280;2023-05-10T23:37:18;100986.00;;;12.40
25514;BMP180;48128;54.242;10.280;2023-05-10T23:39:45;101001.00;;;12.40
25514;BMP180;48128;54.242;10.280;2023-05-10T23:42:12;100985.00;;;12.30
25514;BMP180;48128;54.242;10.280;2023-05-10T23:44:39;100986.00;;;12.30
25514;BMP180;48128;54.242;10.280;2023-05-10T23:47:06;100993.00;;;12.30
25514;BMP180;48128;54.242;10.280;2023-05-10T23:49:33;100997.00;;;12.30
25514;BMP180;48128;54.242;10.280;2023-05-10T23:52:00;100987.00;;;12.30
25514;BMP180;48128;54.242;10.280;2023-05-10T23:54:27;100993.00;;;12.30
25514;BMP180;48128;54.242;10.280;2023-05-10T23:56:54;100998.00;;;12.30
25514;BMP180;48128;54.242;10.280;2023-05-10T23:59:20;101005.00;;;12.30
